sensor_id;sensor_type;location;lat;lon;timestamp;pressure;altitude;pressure_sealevel;temperature;humidity
13581;BME280;6861;46.170;7.222;2023-06-14T00:00:37;95316.06;;;21.65;54.68
13581;BME280;6861;46.170;7.222;2023-06-14T00:03:07;95319.06;;;21.63;54.40
13581;BME280;6861;46.170;7.222;2023-06-14T00:05:37;95323.56;;;21.59;54.79
13581;BME280;6861;46.170;7.222;2023-06-14T00:08:10;95326.56;;;21.57;54.69
13581;BME280;6861;46.170;7.222;2023-06-14T00:10:38;95320.81;;;21.55;54.33
13581;BME280;6861;46.170;7.222;2023-06-14T00:13:09;95324.19;;;21.52;54.83
13581;BME280;6861;46.170;7.222;2023-06-14T00:15:38;95323.34;;;21.48;54.08
13581;BME280;6861;46.170;7.222;2023-06-14T00:18:06;95320.34;;;21.50;54.03
13581;BME280;6861;46.170;7.222;2023-06-14T00:20:36;95314.66;;;21.51;53.74
13581;BME280;6861;46.170;7.222;2023-06-14T00:23:04;95314.31;;;21.53;53.59
13581;BME280;6861;46.170;7.222;2023-06-14T00:25:33;95315.91;;;21.57;53.64
13581;BME280;6861;46.170;7.222;2023-06-14T00:28:01;95319.72;;;21.56;53.52
13581;BME280;6861;46.170;7.222;2023-06-14T00:30:30;95323.13;;;21.57;53.81
13581;BME280;6861;46.170;7.222;2023-06-14T00:32:59;95320.13;;;21.58;54.02
13581;BME280;6861;46.170;7.222;2023-06-14T00:35:27;95311.03;;;21.59;54.07
13581;BME280;6861;46.170;7.222;2023-06-14T00:37:55;95317.47;;;21.58;54.67
13581;BME280;6861;46.170;7.222;2023-06-14T00:40:23;95322.78;;;21.58;55.13
13581;BME280;6861;46.170;7.222;2023-06-14T00:42:51;95316.69;;;21.58;55.32
13581;BME280;6861;46.170;7.222;2023-06-14T00:45:19;95315.56;;;21.59;54.85
13581;BME280;6861;46.170;7.222;2023-06-14T00:47:50;95316.69;;;21.58;55.26
13581;BME280;6861;46.170;7.222;2023-06-14T00:50:22;95317.31;;;21.51;55.42
13581;BME280;6861;46.170;7.222;2023-06-14T00:52:51;95320.97;;;21.43;55.58
13581;BME280;6861;46.170;7.222;2023-06-14T00:55:19;95316.34;;;21.40;55.17
13581;BME280;6861;46.170;7.222;2023-06-14T00:57:48;95316.59;;;21.35;55.13
13581;BME280;6861;46.170;7.222;2023-06-14T01:00:16;95315.34;;;21.29;55.19
13581;BME280;6861;46.170;7.222;2023-06-14T01:02:45;95319.81;;;21.25;54.67
13581;BME280;6861;46.170;7.222;2023-06-14T01:05:15;95318.94;;;21.21;54.88
13581;BME280;6861;46.170;7.222;2023-06-14T01:07:58;95316.97;;;21.18;55.09
13581;BME280;6861;46.170;7.222;2023-06-14T01:10:36;95315.00;;;21.15;54.74
13581;BME280;6861;46.170;7.222;2023-06-14T01:13:12;95320.31;;;21.15;54.97
13581;BME280;6861;46.170;7.222;2023-06-14T01:15:43;95316.56;;;21.16;55.21
13581;BME280;6861;46.170;7.222;2023-06-14T01:18:11;95311.22;;;21.16;54.71
13581;BME280;6861;46.170;7.222;2023-06-14T01:20:46;95323.41;;;21.17;55.08
13581;BME280;6861;46.170;7.222;2023-06-14T01:23:18;95321.88;;;21.16;55.33
13581;BME280;6861;46.170;7.222;2023-06-14T01:25:47;95321.03;;;21.12;55.38
13581;BME280;6861;46.170;7.222;2023-06-14T01:28:20;95317.16;;;21.09;55.25
13581;BME280;6861;46.170;7.222;2023-06-14T01:30:50;95315.53;;;21.05;55.31
13581;BME280;6861;46.170;7.222;2023-06-14T01:33:21;95326.88;;;21.02;55.30
13581;BME280;6861;46.170;7.222;2023-06-14T01:35:50;95327.91;;;20.97;55.29
13581;BME280;6861;46.170;7.222;2023-06-14T01:38:22;95330.75;;;20.88;55.54
13581;BME280;6861;46.170;7.222;2023-06-14T01:40:53;95330.19;;;20.79;55.49
13581;BME280;6861;46.170;7.222;2023-06-14T01:43:22;95331.56;;;20.73;55.61
13581;BME280;6861;46.170;7.222;2023-06-14T01:45:53;95338.28;;;20.67;55.58
13581;BME280;6861;46.170;7.222;2023-06-14T01:48:22;95333.22;;;20.62;55.01
13581;BME280;6861;46.170;7.222;2023-06-14T01:50:52;95327.81;;;20.58;55.47
13581;BME280;6861;46.170;7.222;2023-06-14T01:53:21;95329.59;;;20.54;55.76
13581;BME280;6861;46.170;7.222;2023-06-14T01:55:49;95337.84;;;20.49;55.62
13581;BME280;6861;46.170;7.222;2023-06-14T01:58:20;95330.13;;;20.44;55.85
13581;BME280;6861;46.170;7.222;2023-06-14T02:00:50;95330.38;;;20.39;56.16
13581;BME280;6861;46.170;7.222;2023-06-14T02:03:22;95329.50;;;20.35;56.41
13581;BME280;6861;46.170;7.222;2023-06-14T02:05:51;95332.16;;;20.35;56.62
13581;BME280;6861;46.170;7.222;2023-06-14T02:08:22;95324.94;;;20.36;56.59
13581;BME280;6861;46.170;7.222;2023-06-14T02:10:51;95325.38;;;20.38;56.51
13581;BME280;6861;46.170;7.222;2023-06-14T02:13:19;95326.94;;;20.39;56.66
13581;BME280;6861;46.170;7.222;2023-06-14T02:15:47;95333.81;;;20.40;56.83
13581;BME280;6861;46.170;7.222;2023-06-14T02:18:18;95336.00;;;20.38;56.95
13581;BME280;6861;46.170;7.222;2023-06-14T02:20:46;95332.81;;;20.32;56.87
13581;BME280;6861;46.170;7.222;2023-06-14T02:23:14;95333.06;;;20.27;57.39
13581;BME280;6861;46.170;7.222;2023-06-14T02:25:44;95328.34;;;20.20;57.51
13581;BME280;6861;46.170;7.222;2023-06-14T02:28:13;95331.69;;;20.17;57.24
13581;BME280;6861;46.170;7.222;2023-06-14T02:30:41;95333.91;;;20.15;57.44
13581;BME280;6861;46.170;7.222;2023-06-14T02:33:09;95336.91;;;20.14;57.39
13581;BME280;6861;46.170;7.222;2023-06-14T02:35:39;95336.81;;;20.10;57.67
13581;BME280;6861;46.170;7.222;2023-06-14T02:38:08;95335.97;;;20.06;57.86
13581;BME280;6861;46.170;7.222;2023-06-14T02:40:36;95335.00;;;19.98;57.98
13581;BME280;6861;46.170;7.222;2023-06-14T02:43:05;95342.88;;;19.95;58.22
13581;BME280;6861;46.170;7.222;2023-06-14T02:45:34;95337.16;;;19.93;58.17
13581;BME280;6861;46.170;7.222;2023-06-14T02:48:02;95339.38;;;19.91;58.39
13581;BME280;6861;46.170;7.222;2023-06-14T02:50:30;95345.81;;;19.90;58.18
13581;BME280;6861;46.170;7.222;2023-06-14T02:52:59;95346.91;;;19.89;58.33
13581;BME280;6861;46.170;7.222;2023-06-14T02:55:27;95349.13;;;19.87;58.13
13581;BME280;6861;46.170;7.222;2023-06-14T02:57:55;95352.91;;;19.86;58.18
13581;BME280;6861;46.170;7.222;2023-06-14T03:00:25;95355.13;;;19.84;58.40
13581;BME280;6861;46.170;7.222;2023-06-14T03:02:53;95350.91;;;19.83;57.90
13581;BME280;6861;46.170;7.222;2023-06-14T03:05:21;95359.56;;;19.80;57.97
13581;BME280;6861;46.170;7.222;2023-06-14T03:07:50;95354.06;;;19.73;58.10
13581;BME280;6861;46.170;7.222;2023-06-14T03:10:20;95353.84;;;19.66;58.17
13581;BME280;6861;46.170;7.222;2023-06-14T03:12:48;95348.44;;;19.62;58.20
13581;BME280;6861;46.170;7.222;2023-06-14T03:15:18;95357.41;;;19.57;58.17
13581;BME280;6861;46.170;7.222;2023-06-14T03:17:47;95355.44;;;19.54;58.47
13581;BME280;6861;46.170;7.222;2023-06-14T03:20:16;95359.41;;;19.48;58.64
13581;BME280;6861;46.170;7.222;2023-06-14T03:22:44;95359.28;;;19.45;58.75
13581;BME280;6861;46.170;7.222;2023-06-14T03:25:14;95360.06;;;19.45;58.62
13581;BME280;6861;46.170;7.222;2023-06-14T03:27:42;95363.50;;;19.46;58.76
13581;BME280;6861;46.170;7.222;2023-06-14T03:30:11;95361.84;;;19.41;58.62
13581;BME280;6861;46.170;7.222;2023-06-14T03:32:39;95353.69;;;19.34;58.57
13581;BME280;6861;46.170;7.222;2023-06-14T03:35:09;95363.75;;;19.28;58.85
13581;BME280;6861;46.170;7.222;2023-06-14T03:37:44;95377.69;;;19.25;58.95
13581;BME280;6861;46.170;7.222;2023-06-14T03:40:12;95370.06;;;19.24;58.64
13581;BME280;6861;46.170;7.222;2023-06-14T03:42:41;95377.56;;;19.22;58.84
13581;BME280;6861;46.170;7.222;2023-06-14T03:45:09;95375.25;;;19.20;59.01
13581;BME280;6861;46.170;7.222;2023-06-14T03:47:37;95380.56;;;19.20;58.54
13581;BME280;6861;46.170;7.222;2023-06-14T03:50:06;95380.22;;;19.22;59.20
13581;BME280;6861;46.170;7.222;2023-06-14T03:52:35;95377.56;;;19.22;58.81
13581;BME280;6861;46.170;7.222;2023-06-14T03:55:05;95381.34;;;19.21;59.15
13581;BME280;6861;46.170;7.222;2023-06-14T03:57:37;95385.09;;;19.20;59.38
13581;BME280;6861;46.170;7.222;2023-06-14T04:00:07;95388.19;;;19.22;59.31
13581;BME280;6861;46.170;7.222;2023-06-14T04:02:36;95390.50;;;19.23;58.91
13581;BME280;6861;46.170;7.222;2023-06-14T04:05:05;95394.38;;;19.26;59.35
13581;BME280;6861;46.170;7.222;2023-06-14T04:07:36;95394.38;;;19.26;59.20
13581;BME280;6861;46.170;7.222;2023-06-14T04:10:07;95397.47;;;19.28;59.39
13581;BME280;6861;46.170;7.222;2023-06-14T04:12:35;95402.09;;;19.31;59.32
13581;BME280;6861;46.170;7.222;2023-06-14T04:15:04;95405.19;;;19.33;59.33
13581;BME280;6861;46.170;7.222;2023-06-14T04:17:47;95407.84;;;19.33;58.95
13581;BME280;6861;46.170;7.222;2023-06-14T04:20:16;95411.59;;;19.32;58.92
13581;BME280;6861;46.170;7.222;2023-06-14T04:22:46;95412.03;;;19.34;59.19
13581;BME280;6861;46.170;7.222;2023-06-14T04:25:14;95414.25;;;19.32;59.35
13581;BME280;6861;46.170;7.222;2023-06-14T04:27:49;95420.44;;;19.36;58.72
13581;BME280;6861;46.170;7.222;2023-06-14T04:30:19;95412.47;;;19.48;58.60
13581;BME280;6861;46.170;7.222;2023-06-14T04:32:48;95414.66;;;19.71;57.77
13581;BME280;6861;46.170;7.222;2023-06-14T04:35:16;95419.53;;;19.96;57.30
13581;BME280;6861;46.170;7.222;2023-06-14T04:37:46;95426.66;;;20.20;56.69
13581;BME280;6861;46.170;7.222;2023-06-14T04:40:14;95427.34;;;20.45;56.05
13581;BME280;6861;46.170;7.222;2023-06-14T04:42:42;95430.81;;;20.77;55.62
13581;BME280;6861;46.170;7.222;2023-06-14T04:45:12;95432.75;;;21.12;54.77
13581;BME280;6861;46.170;7.222;2023-06-14T04:47:43;95435.00;;;21.41;54.41
13581;BME280;6861;46.170;7.222;2023-06-14T04:50:11;95429.38;;;21.62;53.10
13581;BME280;6861;46.170;7.222;2023-06-14T04:52:39;95428.31;;;21.86;53.24
13581;BME280;6861;46.170;7.222;2023-06-14T04:55:10;95433.25;;;22.03;52.39
13581;BME280;6861;46.170;7.222;2023-06-14T04:57:38;95426.69;;;22.16;52.47
13581;BME280;6861;46.170;7.222;2023-06-14T05:00:09;95427.66;;;22.28;52.35
13581;BME280;6861;46.170;7.222;2023-06-14T05:02:39;95437.88;;;22.45;51.61
13581;BME280;6861;46.170;7.222;2023-06-14T05:05:07;95438.78;;;22.75;50.87
13581;BME280;6861;46.170;7.222;2023-06-14T05:07:35;95438.56;;;23.07;50.32
13581;BME280;6861;46.170;7.222;2023-06-14T05:10:09;95442.81;;;23.34;49.54
13581;BME280;6861;46.170;7.222;2023-06-14T05:12:37;95441.84;;;23.49;49.24
13581;BME280;6861;46.170;7.222;2023-06-14T05:15:07;95441.47;;;23.74;48.84
13581;BME280;6861;46.170;7.222;2023-06-14T05:17:35;95435.25;;;23.96;48.31
13581;BME280;6861;46.170;7.222;2023-06-14T05:20:04;95435.56;;;24.21;47.71
13581;BME280;6861;46.170;7.222;2023-06-14T05:22:33;95439.41;;;24.57;47.03
13581;BME280;6861;46.170;7.222;2023-06-14T05:25:01;95433.75;;;25.03;46.56
13581;BME280;6861;46.170;7.222;2023-06-14T05:27:31;95433.28;;;25.48;45.88
13581;BME280;6861;46.170;7.222;2023-06-14T05:29:59;95434.31;;;25.88;45.10
13581;BME280;6861;46.170;7.222;2023-06-14T05:32:27;95437.09;;;26.20;44.48
13581;BME280;6861;46.170;7.222;2023-06-14T05:34:55;95431.44;;;26.36;44.01
13581;BME280;6861;46.170;7.222;2023-06-14T05:37:23;95426.84;;;26.40;43.83
13581;BME280;6861;46.170;7.222;2023-06-14T05:39:51;95432.22;;;26.47;43.55
13581;BME280;6861;46.170;7.222;2023-06-14T05:42:19;95433.81;;;26.69;43.06
13581;BME280;6861;46.170;7.222;2023-06-14T05:44:49;95430.78;;;27.10;42.89
13581;BME280;6861;46.170;7.222;2023-06-14T05:47:17;95437.69;;;27.47;42.13
13581;BME280;6861;46.170;7.222;2023-06-14T05:49:45;95436.91;;;27.71;41.99
13581;BME280;6861;46.170;7.222;2023-06-14T05:52:13;95429.22;;;27.73;41.79
13581;BME280;6861;46.170;7.222;2023-06-14T05:54:42;95439.91;;;27.87;41.08
13581;BME280;6861;46.170;7.222;2023-06-14T05:57:10;95438.44;;;27.72;40.79
13581;BME280;6861;46.170;7.222;2023-06-14T05:59:38;95446.88;;;27.49;41.59
13581;BME280;6861;46.170;7.222;2023-06-14T06:02:08;95441.16;;;27.04;41.16
13581;BME280;6861;46.170;7.222;2023-06-14T06:04:36;95434.56;;;26.66;41.72
13581;BME280;6861;46.170;7.222;2023-06-14T06:07:04;95433.34;;;26.35;42.27
13581;BME280;6861;46.170;7.222;2023-06-14T06:09:33;95436.69;;;26.14;42.64
13581;BME280;6861;46.170;7.222;2023-06-14T06:12:01;95438.22;;;26.16;42.55
13581;BME280;6861;46.170;7.222;2023-06-14T06:14:29;95436.28;;;26.05;43.17
13581;BME280;6861;46.170;7.222;2023-06-14T06:16:57;95435.03;;;25.78;43.50
13581;BME280;6861;46.170;7.222;2023-06-14T06:19:27;95427.94;;;25.52;44.01
13581;BME280;6861;46.170;7.222;2023-06-14T06:21:55;95433.53;;;25.29;44.26
13581;BME280;6861;46.170;7.222;2023-06-14T06:24:23;95438.34;;;25.06;44.74
13581;BME280;6861;46.170;7.222;2023-06-14T06:26:51;95442.28;;;24.78;45.15
13581;BME280;6861;46.170;7.222;2023-06-14T06:29:19;95435.59;;;24.58;45.29
13581;BME280;6861;46.170;7.222;2023-06-14T06:31:48;95433.72;;;24.62;45.60
13581;BME280;6861;46.170;7.222;2023-06-14T06:34:16;95430.91;;;25.36;44.88
13581;BME280;6861;46.170;7.222;2023-06-14T06:36:45;95433.03;;;26.65;42.57
13581;BME280;6861;46.170;7.222;2023-06-14T06:39:14;95431.47;;;27.82;40.63
13581;BME280;6861;46.170;7.222;2023-06-14T06:41:42;95436.81;;;28.72;39.03
13581;BME280;6861;46.170;7.222;2023-06-14T06:44:10;95440.00;;;29.16;37.64
13581;BME280;6861;46.170;7.222;2023-06-14T06:46:39;95435.88;;;29.49;37.06
13581;BME280;6861;46.170;7.222;2023-06-14T06:49:09;95436.66;;;29.87;36.42
13581;BME280;6861;46.170;7.222;2023-06-14T06:51:41;95436.84;;;30.07;35.64
13581;BME280;6861;46.170;7.222;2023-06-14T06:54:11;95443.69;;;30.15;35.29
13581;BME280;6861;46.170;7.222;2023-06-14T06:56:39;95444.84;;;30.44;34.75
13581;BME280;6861;46.170;7.222;2023-06-14T06:59:07;95441.13;;;30.92;34.54
13581;BME280;6861;46.170;7.222;2023-06-14T07:01:35;95436.50;;;31.39;33.73
13581;BME280;6861;46.170;7.222;2023-06-14T07:04:03;95438.06;;;31.83;33.01
13581;BME280;6861;46.170;7.222;2023-06-14T07:06:32;95439.03;;;32.13;32.15
13581;BME280;6861;46.170;7.222;2023-06-14T07:09:00;95431.09;;;32.62;31.69
13581;BME280;6861;46.170;7.222;2023-06-14T07:11:29;95428.94;;;33.21;30.96
13581;BME280;6861;46.170;7.222;2023-06-14T07:13:57;95431.81;;;33.47;30.42
13581;BME280;6861;46.170;7.222;2023-06-14T07:16:26;95427.72;;;33.55;30.82
13581;BME280;6861;46.170;7.222;2023-06-14T07:18:54;95429.25;;;33.56;30.31
13581;BME280;6861;46.170;7.222;2023-06-14T07:21:22;95432.63;;;33.60;30.01
13581;BME280;6861;46.170;7.222;2023-06-14T07:23:52;95429.97;;;33.73;30.14
13581;BME280;6861;46.170;7.222;2023-06-14T07:26:21;95430.56;;;33.80;29.72
13581;BME280;6861;46.170;7.222;2023-06-14T07:28:51;95421.50;;;34.00;30.03
13581;BME280;6861;46.170;7.222;2023-06-14T07:31:19;95427.91;;;34.73;29.35
13581;BME280;6861;46.170;7.222;2023-06-14T07:33:48;95424.19;;;35.43;28.22
13581;BME280;6861;46.170;7.222;2023-06-14T07:36:16;95422.16;;;35.56;28.19
13581;BME280;6861;46.170;7.222;2023-06-14T07:38:45;95419.28;;;35.72;27.60
13581;BME280;6861;46.170;7.222;2023-06-14T07:41:14;95419.75;;;35.58;27.42
13581;BME280;6861;46.170;7.222;2023-06-14T07:43:42;95424.34;;;35.14;27.86
13581;BME280;6861;46.170;7.222;2023-06-14T07:46:11;95418.13;;;35.13;27.72
13581;BME280;6861;46.170;7.222;2023-06-14T07:48:40;95418.34;;;35.19;27.76
13581;BME280;6861;46.170;7.222;2023-06-14T07:51:08;95421.53;;;35.87;27.85
13581;BME280;6861;46.170;7.222;2023-06-14T07:53:36;95417.88;;;36.95;26.80
13581;BME280;6861;46.170;7.222;2023-06-14T07:56:04;95413.19;;;37.82;25.33
13581;BME280;6861;46.170;7.222;2023-06-14T07:58:32;95416.81;;;37.69;25.19
13581;BME280;6861;46.170;7.222;2023-06-14T08:01:01;95411.16;;;37.46;24.59
13581;BME280;6861;46.170;7.222;2023-06-14T08:03:34;95408.28;;;37.58;24.97
13581;BME280;6861;46.170;7.222;2023-06-14T08:06:03;95404.78;;;38.22;24.20
13581;BME280;6861;46.170;7.222;2023-06-14T08:08:31;95400.63;;;39.11;23.63
13581;BME280;6861;46.170;7.222;2023-06-14T08:10:59;95399.59;;;40.09;22.75
13581;BME280;6861;46.170;7.222;2023-06-14T08:13:28;95400.22;;;41.13;22.06
13581;BME280;6861;46.170;7.222;2023-06-14T08:15:56;95396.50;;;41.77;21.06
13581;BME280;6861;46.170;7.222;2023-06-14T08:18:25;95386.94;;;42.44;20.25
13581;BME280;6861;46.170;7.222;2023-06-14T08:20:54;95382.41;;;43.21;19.68
13581;BME280;6861;46.170;7.222;2023-06-14T08:23:24;95377.38;;;43.90;19.31
13581;BME280;6861;46.170;7.222;2023-06-14T08:25:52;95374.91;;;44.59;18.54
13581;BME280;6861;46.170;7.222;2023-06-14T08:28:20;95369.13;;;44.80;18.16
13581;BME280;6861;46.170;7.222;2023-06-14T08:30:48;95366.28;;;45.07;18.03
13581;BME280;6861;46.170;7.222;2023-06-14T08:33:17;95356.56;;;45.59;17.70
13581;BME280;6861;46.170;7.222;2023-06-14T08:35:45;95365.47;;;46.17;17.29
13581;BME280;6861;46.170;7.222;2023-06-14T08:38:15;95370.28;;;46.77;16.71
13581;BME280;6861;46.170;7.222;2023-06-14T08:40:44;95362.41;;;45.91;16.42
13581;BME280;6861;46.170;7.222;2023-06-14T08:43:13;95357.31;;;45.59;16.69
13581;BME280;6861;46.170;7.222;2023-06-14T08:45:41;95359.31;;;45.53;16.58
13581;BME280;6861;46.170;7.222;2023-06-14T08:48:09;95354.25;;;45.68;16.50
13581;BME280;6861;46.170;7.222;2023-06-14T08:50:40;95353.72;;;46.11;16.23
13581;BME280;6861;46.170;7.222;2023-06-14T08:53:11;95359.47;;;46.49;15.96
13581;BME280;6861;46.170;7.222;2023-06-14T08:55:48;95352.66;;;46.98;15.43
13581;BME280;6861;46.170;7.222;2023-06-14T08:58:17;95353.50;;;47.37;15.08
13581;BME280;6861;46.170;7.222;2023-06-14T09:00:46;95338.66;;;47.90;15.22
13581;BME280;6861;46.170;7.222;2023-06-14T09:03:14;95339.88;;;48.08;14.56
13581;BME280;6861;46.170;7.222;2023-06-14T09:05:44;95338.81;;;48.43;14.57
13581;BME280;6861;46.170;7.222;2023-06-14T09:08:12;95335.22;;;48.62;14.33
13581;BME280;6861;46.170;7.222;2023-06-14T09:10:41;95333.53;;;49.11;13.84
13581;BME280;6861;46.170;7.222;2023-06-14T09:13:11;95328.69;;;49.38;13.62
13581;BME280;6861;46.170;7.222;2023-06-14T09:15:39;95328.16;;;49.40;13.49
13581;BME280;6861;46.170;7.222;2023-06-14T09:18:08;95323.94;;;49.46;13.27
13581;BME280;6861;46.170;7.222;2023-06-14T09:20:37;95310.56;;;49.45;13.03
13581;BME280;6861;46.170;7.222;2023-06-14T09:23:05;95320.47;;;49.33;13.09
13581;BME280;6861;46.170;7.222;2023-06-14T09:25:41;95330.97;;;49.13;13.37
13581;BME280;6861;46.170;7.222;2023-06-14T09:28:12;95323.72;;;48.97;13.38
13581;BME280;6861;46.170;7.222;2023-06-14T09:30:40;95315.38;;;49.23;13.39
13581;BME280;6861;46.170;7.222;2023-06-14T09:33:08;95316.09;;;49.71;13.21
13581;BME280;6861;46.170;7.222;2023-06-14T09:35:37;95310.56;;;49.58;12.99
13581;BME280;6861;46.170;7.222;2023-06-14T09:38:06;95314.81;;;49.12;13.33
13581;BME280;6861;46.170;7.222;2023-06-14T09:40:35;95307.22;;;48.86;13.20
13581;BME280;6861;46.170;7.222;2023-06-14T09:43:06;95311.72;;;48.63;13.50
13581;BME280;6861;46.170;7.222;2023-06-14T09:45:38;95306.38;;;48.65;13.43
13581;BME280;6861;46.170;7.222;2023-06-14T09:48:07;95312.44;;;48.37;13.81
13581;BME280;6861;46.170;7.222;2023-06-14T09:50:36;95311.34;;;47.94;13.72
13581;BME280;6861;46.170;7.222;2023-06-14T09:53:06;95311.28;;;46.82;14.42
13581;BME280;6861;46.170;7.222;2023-06-14T09:55:36;95310.19;;;45.35;15.47
13581;BME280;6861;46.170;7.222;2023-06-14T09:58:06;95307.63;;;43.50;16.59
13581;BME280;6861;46.170;7.222;2023-06-14T10:00:36;95309.63;;;41.85;18.08
13581;BME280;6861;46.170;7.222;2023-06-14T10:03:12;95304.31;;;40.34;19.36
13581;BME280;6861;46.170;7.222;2023-06-14T10:05:43;95307.06;;;39.21;20.60
13581;BME280;6861;46.170;7.222;2023-06-14T10:08:14;95301.63;;;38.31;21.27
13581;BME280;6861;46.170;7.222;2023-06-14T10:10:44;95304.84;;;37.51;22.07
13581;BME280;6861;46.170;7.222;2023-06-14T10:13:12;95302.78;;;36.69;22.69
13581;BME280;6861;46.170;7.222;2023-06-14T10:15:45;95298.22;;;36.17;23.56
13581;BME280;6861;46.170;7.222;2023-06-14T10:18:24;95289.75;;;35.62;23.92
13581;BME280;6861;46.170;7.222;2023-06-14T10:20:58;95291.09;;;35.01;24.45
13581;BME280;6861;46.170;7.222;2023-06-14T10:23:33;95293.59;;;34.48;25.18
13581;BME280;6861;46.170;7.222;2023-06-14T10:26:04;95295.41;;;34.01;25.59
13581;BME280;6861;46.170;7.222;2023-06-14T10:28:32;95296.63;;;33.58;26.40
13581;BME280;6861;46.170;7.222;2023-06-14T10:31:06;95283.16;;;33.26;26.31
13581;BME280;6861;46.170;7.222;2023-06-14T10:33:39;95281.63;;;32.96;27.42
13581;BME280;6861;46.170;7.222;2023-06-14T10:36:25;95284.28;;;32.83;27.06
13581;BME280;6861;46.170;7.222;2023-06-14T10:38:59;95279.53;;;32.71;27.67
13581;BME280;6861;46.170;7.222;2023-06-14T10:41:28;95278.78;;;32.54;27.90
13581;BME280;6861;46.170;7.222;2023-06-14T10:44:33;95281.41;;;32.41;27.69
13581;BME280;6861;46.170;7.222;2023-06-14T10:47:26;95271.44;;;32.18;28.38
13581;BME280;6861;46.170;7.222;2023-06-14T10:49:58;95272.56;;;32.05;27.98
13581;BME280;6861;46.170;7.222;2023-06-14T10:52:33;95268.56;;;31.93;28.23
13581;BME280;6861;46.170;7.222;2023-06-14T10:55:05;95272.38;;;31.96;28.54
13581;BME280;6861;46.170;7.222;2023-06-14T10:57:36;95266.63;;;31.93;28.51
13581;BME280;6861;46.170;7.222;2023-06-14T11:00:18;95271.84;;;31.84;28.27
13581;BME280;6861;46.170;7.222;2023-06-14T11:03:10;95257.34;;;31.75;27.92
13581;BME280;6861;46.170;7.222;2023-06-14T11:05:51;95259.06;;;31.65;28.32
13581;BME280;6861;46.170;7.222;2023-06-14T11:08:51;95252.97;;;31.61;28.79
13581;BME280;6861;46.170;7.222;2023-06-14T11:11:30;95250.75;;;31.56;28.47
13581;BME280;6861;46.170;7.222;2023-06-14T11:14:00;95248.69;;;31.44;28.23
13581;BME280;6861;46.170;7.222;2023-06-14T11:16:29;95254.22;;;31.37;28.50
13581;BME280;6861;46.170;7.222;2023-06-14T11:19:00;95243.22;;;31.27;28.65
13581;BME280;6861;46.170;7.222;2023-06-14T11:21:32;95247.31;;;31.16;28.51
13581;BME280;6861;46.170;7.222;2023-06-14T11:24:00;95243.50;;;31.13;28.43
13581;BME280;6861;46.170;7.222;2023-06-14T11:26:29;95241.94;;;30.92;28.40
13581;BME280;6861;46.170;7.222;2023-06-14T11:28:59;95230.84;;;30.87;28.64
13581;BME280;6861;46.170;7.222;2023-06-14T11:31:28;95238.88;;;30.90;28.94
13581;BME280;6861;46.170;7.222;2023-06-14T11:33:58;95227.09;;;30.81;28.63
13581;BME280;6861;46.170;7.222;2023-06-14T11:36:27;95229.84;;;30.77;28.70
13581;BME280;6861;46.170;7.222;2023-06-14T11:38:59;95221.34;;;30.79;28.30
13581;BME280;6861;46.170;7.222;2023-06-14T11:41:38;95217.13;;;30.78;28.63
13581;BME280;6861;46.170;7.222;2023-06-14T11:44:07;95227.16;;;30.77;28.60
13581;BME280;6861;46.170;7.222;2023-06-14T11:46:35;95221.00;;;30.77;28.56
13581;BME280;6861;46.170;7.222;2023-06-14T11:49:04;95215.94;;;30.79;28.45
13581;BME280;6861;46.170;7.222;2023-06-14T11:51:34;95208.19;;;30.81;28.66
13581;BME280;6861;46.170;7.222;2023-06-14T11:54:06;95215.09;;;30.82;28.61
13581;BME280;6861;46.170;7.222;2023-06-14T11:56:34;95207.34;;;30.84;28.66
13581;BME280;6861;46.170;7.222;2023-06-14T11:59:03;95209.28;;;30.83;28.33
13581;BME280;6861;46.170;7.222;2023-06-14T12:01:36;95197.25;;;30.88;28.57
13581;BME280;6861;46.170;7.222;2023-06-14T12:04:05;95198.63;;;30.96;28.73
13581;BME280;6861;46.170;7.222;2023-06-14T12:06:34;95206.19;;;31.05;28.53
13581;BME280;6861;46.170;7.222;2023-06-14T12:09:05;95206.81;;;31.12;28.69
13581;BME280;6861;46.170;7.222;2023-06-14T12:11:37;95209.31;;;31.23;28.71
13581;BME280;6861;46.170;7.222;2023-06-14T12:14:07;95190.31;;;31.26;28.64
13581;BME280;6861;46.170;7.222;2023-06-14T12:16:38;95191.16;;;31.23;28.44
13581;BME280;6861;46.170;7.222;2023-06-14T12:19:12;95194.28;;;31.22;28.21
13581;BME280;6861;46.170;7.222;2023-06-14T12:21:41;95190.38;;;31.23;28.13
13581;BME280;6861;46.170;7.222;2023-06-14T12:24:12;95176.63;;;31.17;28.19
13581;BME280;6861;46.170;7.222;2023-06-14T12:26:41;95182.09;;;31.14;27.97
13581;BME280;6861;46.170;7.222;2023-06-14T12:29:09;95173.25;;;31.13;28.37
13581;BME280;6861;46.170;7.222;2023-06-14T12:31:40;95182.88;;;31.14;28.11
13581;BME280;6861;46.170;7.222;2023-06-14T12:34:09;95180.50;;;31.16;28.28
13581;BME280;6861;46.170;7.222;2023-06-14T12:36:37;95175.09;;;31.16;28.17
13581;BME280;6861;46.170;7.222;2023-06-14T12:39:12;95167.75;;;31.17;27.83
13581;BME280;6861;46.170;7.222;2023-06-14T12:41:41;95168.00;;;31.22;27.84
13581;BME280;6861;46.170;7.222;2023-06-14T12:44:10;95161.75;;;31.25;27.73
13581;BME280;6861;46.170;7.222;2023-06-14T12:46:39;95161.06;;;31.21;27.63
13581;BME280;6861;46.170;7.222;2023-06-14T12:49:09;95163.69;;;31.25;27.57
13581;BME280;6861;46.170;7.222;2023-06-14T12:51:38;95167.94;;;31.26;27.16
13581;BME280;6861;46.170;7.222;2023-06-14T12:54:07;95175.22;;;31.29;27.19
13581;BME280;6861;46.170;7.222;2023-06-14T12:56:37;95174.28;;;31.36;27.19
13581;BME280;6861;46.170;7.222;2023-06-14T12:59:05;95177.19;;;31.45;26.77
13581;BME280;6861;46.170;7.222;2023-06-14T13:01:34;95161.16;;;31.54;27.08
13581;BME280;6861;46.170;7.222;2023-06-14T13:04:02;95159.31;;;31.67;26.71
13581;BME280;6861;46.170;7.222;2023-06-14T13:06:31;95158.69;;;31.79;26.52
13581;BME280;6861;46.170;7.222;2023-06-14T13:09:00;95159.22;;;31.90;26.12
13581;BME280;6861;46.170;7.222;2023-06-14T13:11:28;95170.22;;;32.00;26.14
13581;BME280;6861;46.170;7.222;2023-06-14T13:13:58;95162.22;;;32.09;25.81
13581;BME280;6861;46.170;7.222;2023-06-14T13:16:34;95172.03;;;32.19;25.62
13581;BME280;6861;46.170;7.222;2023-06-14T13:19:02;95181.19;;;32.25;25.17
13581;BME280;6861;46.170;7.222;2023-06-14T13:21:30;95173.34;;;32.31;24.71
13581;BME280;6861;46.170;7.222;2023-06-14T13:23:59;95172.22;;;32.44;24.37